sensor_id;sensor_type;location;lat;lon;timestamp;P1;durP1;ratioP1;P2;durP2;ratioP2
76636;SDS011;65532;52.124;5.480;2023-04-24T00:00:32;0.68;;;0.40;;
76636;SDS011;65532;52.124;5.480;2023-04-24T00:02:58;2.58;;;0.93;;
76636;SDS011;65532;52.124;5.480;2023-04-24T00:05:25;2.30;;;0.30;;
76636;SDS011;65532;52.124;5.480;2023-04-24T00:07:52;0.93;;;0.35;;
76636;SDS011;65532;52.124;5.480;2023-04-24T00:10:18;1.95;;;0.43;;
76636;SDS011;65532;52.124;5.480;2023-04-24T00:12:45;2.42;;;0.30;;
76636;SDS011;65532;52.124;5.480;2023-04-24T00:15:12;3.40;;;0.35;;
76636;SDS011;65532;52.124;5.480;2023-04-24T00:17:38;1.40;;;0.70;;
76636;SDS011;65532;52.124;5.480;2023-04-24T00:20:05;1.30;;;0.43;;
76636;SDS011;65532;52.124;5.480;2023-04-24T00:22:33;2.13;;;1.35;;
76636;SDS011;65532;52.124;5.480;2023-04-24T00:24:59;1.77;;;1.02;;
76636;SDS011;65532;52.124;5.480;2023-04-24T00:27:26;2.92;;;1.33;;
76636;SDS011;65532;52.124;5.480;2023-04-24T00:29:52;1.95;;;0.77;;
76636;SDS011;65532;52.124;5.480;2023-04-24T00:32:19;2.95;;;1.33;;
76636;SDS011;65532;52.124;5.480;2023-04-24T00:34:47;1.80;;;1.02;;
76636;SDS011;65532;52.124;5.480;2023-04-24T00:37:13;2.63;;;0.60;;
76636;SDS011;65532;52.124;5.480;2023-04-24T00:39:43;2.88;;;1.73;;
76636;SDS011;65532;52.124;5.480;2023-04-24T00:42:10;3.22;;;1.33;;
76636;SDS011;65532;52.124;5.480;2023-04-24T00:44:37;3.03;;;1.10;;
76636;SDS011;65532;52.124;5.480;2023-04-24T00:47:03;2.63;;;0.82;;
76636;SDS011;65532;52.124;5.480;2023-04-24T00:49:30;4.25;;;1.40;;
76636;SDS011;65532;52.124;5.480;2023-04-24T00:51:56;2.97;;;1.30;;
76636;SDS011;65532;52.124;5.480;2023-04-24T00:54:25;3.25;;;1.48;;
76636;SDS011;65532;52.124;5.480;2023-04-24T00:56:51;1.75;;;0.70;;
76636;SDS011;65532;52.124;5.480;2023-04-24T00:59:18;2.45;;;1.63;;
76636;SDS011;65532;52.124;5.480;2023-04-24T01:01:45;3.67;;;1.27;;
76636;SDS011;65532;52.124;5.480;2023-04-24T01:04:12;2.33;;;1.13;;
76636;SDS011;65532;52.124;5.480;2023-04-24T01:06:40;3.33;;;1.05;;
76636;SDS011;65532;52.124;5.480;2023-04-24T01:09:09;2.60;;;0.80;;
76636;SDS011;65532;52.124;5.480;2023-04-24T01:11:37;2.90;;;1.20;;
76636;SDS011;65532;52.124;5.480;2023-04-24T01:14:04;2.95;;;1.80;;
76636;SDS011;65532;52.124;5.480;2023-04-24T01:16:31;3.17;;;1.90;;
76636;SDS011;65532;52.124;5.480;2023-04-24T01:18:57;3.38;;;1.42;;
76636;SDS011;65532;52.124;5.480;2023-04-24T01:21:23;3.78;;;1.60;;
76636;SDS011;65532;52.124;5.480;2023-04-24T01:23:54;3.30;;;1.00;;
76636;SDS011;65532;52.124;5.480;2023-04-24T01:26:21;3.15;;;1.02;;
76636;SDS011;65532;52.124;5.480;2023-04-24T01:28:48;2.70;;;0.98;;
76636;SDS011;65532;52.124;5.480;2023-04-24T01:31:15;3.13;;;1.40;;
76636;SDS011;65532;52.124;5.480;2023-04-24T01:33:42;4.07;;;1.52;;
76636;SDS011;65532;52.124;5.480;2023-04-24T01:36:11;3.40;;;1.42;;
76636;SDS011;65532;52.124;5.480;2023-04-24T01:38:39;3.42;;;1.30;;
76636;SDS011;65532;52.124;5.480;2023-04-24T01:41:06;4.03;;;1.73;;
76636;SDS011;65532;52.124;5.480;2023-04-24T01:43:32;5.65;;;2.17;;
76636;SDS011;65532;52.124;5.480;2023-04-24T01:45:58;4.63;;;1.30;;
76636;SDS011;65532;52.124;5.480;2023-04-24T01:48:25;3.80;;;1.80;;
76636;SDS011;65532;52.124;5.480;2023-04-24T01:50:52;6.93;;;2.97;;
76636;SDS011;65532;52.124;5.480;2023-04-24T01:53:19;6.82;;;2.42;;
76636;SDS011;65532;52.124;5.480;2023-04-24T01:55:45;6.50;;;2.92;;
76636;SDS011;65532;52.124;5.480;2023-04-24T01:58:12;4.45;;;2.08;;
76636;SDS011;65532;52.124;5.480;2023-04-24T02:00:39;5.15;;;2.45;;
76636;SDS011;65532;52.124;5.480;2023-04-24T02:03:06;6.35;;;2.13;;
76636;SDS011;65532;52.124;5.480;2023-04-24T02:05:32;4.85;;;2.03;;
76636;SDS011;65532;52.124;5.480;2023-04-24T02:08:01;3.63;;;1.63;;
76636;SDS011;65532;52.124;5.480;2023-04-24T02:10:28;3.60;;;1.30;;
76636;SDS011;65532;52.124;5.480;2023-04-24T02:12:54;3.42;;;1.55;;
76636;SDS011;65532;52.124;5.480;2023-04-24T02:15:23;3.45;;;1.70;;
76636;SDS011;65532;52.124;5.480;2023-04-24T02:17:49;5.57;;;2.28;;
76636;SDS011;65532;52.124;5.480;2023-04-24T02:20:16;4.72;;;1.60;;
76636;SDS011;65532;52.124;5.480;2023-04-24T02:22:43;3.78;;;0.85;;
76636;SDS011;65532;52.124;5.480;2023-04-24T02:25:10;3.03;;;1.85;;
76636;SDS011;65532;52.124;5.480;2023-04-24T02:27:36;4.10;;;1.50;;
76636;SDS011;65532;52.124;5.480;2023-04-24T02:30:05;3.60;;;2.58;;
76636;SDS011;65532;52.124;5.480;2023-04-24T02:32:32;3.47;;;1.58;;
76636;SDS011;65532;52.124;5.480;2023-04-24T02:34:58;4.25;;;1.70;;
76636;SDS011;65532;52.124;5.480;2023-04-24T02:37:25;4.35;;;2.22;;
76636;SDS011;65532;52.124;5.480;2023-04-24T02:39:52;4.20;;;1.70;;
76636;SDS011;65532;52.124;5.480;2023-04-24T02:42:18;3.78;;;1.10;;
76636;SDS011;65532;52.124;5.480;2023-04-24T02:44:44;4.30;;;1.90;;
76636;SDS011;65532;52.124;5.480;2023-04-24T02:47:11;6.13;;;1.42;;
76636;SDS011;65532;52.124;5.480;2023-04-24T02:49:38;4.47;;;2.63;;
76636;SDS011;65532;52.124;5.480;2023-04-24T02:52:04;4.10;;;2.20;;
76636;SDS011;65532;52.124;5.480;2023-04-24T02:54:31;3.72;;;2.17;;
76636;SDS011;65532;52.124;5.480;2023-04-24T02:56:57;4.25;;;1.67;;
76636;SDS011;65532;52.124;5.480;2023-04-24T02:59:24;4.80;;;2.25;;
76636;SDS011;65532;52.124;5.480;2023-04-24T03:01:53;4.72;;;2.13;;
76636;SDS011;65532;52.124;5.480;2023-04-24T03:04:19;4.20;;;1.35;;
76636;SDS011;65532;52.124;5.480;2023-04-24T03:06:47;3.97;;;1.60;;
76636;SDS011;65532;52.124;5.480;2023-04-24T03:09:13;4.22;;;1.77;;
76636;SDS011;65532;52.124;5.480;2023-04-24T03:11:40;3.92;;;2.25;;
76636;SDS011;65532;52.124;5.480;2023-04-24T03:14:07;4.78;;;1.63;;
76636;SDS011;65532;52.124;5.480;2023-04-24T03:16:34;4.63;;;1.77;;
76636;SDS011;65532;52.124;5.480;2023-04-24T03:19:00;5.93;;;1.77;;
76636;SDS011;65532;52.124;5.480;2023-04-24T03:21:30;4.68;;;2.67;;
76636;SDS011;65532;52.124;5.480;2023-04-24T03:23:57;3.67;;;2.22;;
76636;SDS011;65532;52.124;5.480;2023-04-24T03:26:23;5.65;;;2.05;;
76636;SDS011;65532;52.124;5.480;2023-04-24T03:29:02;4.90;;;2.45;;
76636;SDS011;65532;52.124;5.480;2023-04-24T03:31:29;3.97;;;1.40;;
76636;SDS011;65532;52.124;5.480;2023-04-24T03:33:56;4.10;;;1.50;;
76636;SDS011;65532;52.124;5.480;2023-04-24T03:36:24;3.35;;;1.60;;
76636;SDS011;65532;52.124;5.480;2023-04-24T03:38:53;5.70;;;2.30;;
76636;SDS011;65532;52.124;5.480;2023-04-24T03:41:31;4.28;;;1.80;;
76636;SDS011;65532;52.124;5.480;2023-04-24T03:44:07;4.30;;;2.55;;
76636;SDS011;65532;52.124;5.480;2023-04-24T03:46:34;4.43;;;1.50;;
76636;SDS011;65532;52.124;5.480;2023-04-24T03:49:01;5.55;;;2.85;;
76636;SDS011;65532;52.124;5.480;2023-04-24T03:51:33;4.57;;;2.05;;
76636;SDS011;65532;52.124;5.480;2023-04-24T03:54:12;4.88;;;2.15;;
76636;SDS011;65532;52.124;5.480;2023-04-24T03:56:39;4.00;;;1.95;;
76636;SDS011;65532;52.124;5.480;2023-04-24T03:59:06;5.05;;;1.77;;
76636;SDS011;65532;52.124;5.480;2023-04-24T04:01:34;5.35;;;3.17;;
76636;SDS011;65532;52.124;5.480;2023-04-24T04:04:09;4.38;;;1.63;;
76636;SDS011;65532;52.124;5.480;2023-04-24T04:06:37;4.35;;;2.47;;
76636;SDS011;65532;52.124;5.480;2023-04-24T04:09:04;7.25;;;2.08;;
76636;SDS011;65532;52.124;5.480;2023-04-24T04:11:30;5.68;;;2.55;;
76636;SDS011;65532;52.124;5.480;2023-04-24T04:13:57;5.70;;;2.05;;
76636;SDS011;65532;52.124;5.480;2023-04-24T04:16:23;6.38;;;1.70;;
76636;SDS011;65532;52.124;5.480;2023-04-24T04:18:55;4.40;;;2.72;;
76636;SDS011;65532;52.124;5.480;2023-04-24T04:21:21;6.30;;;2.75;;
76636;SDS011;65532;52.124;5.480;2023-04-24T04:23:53;5.20;;;2.75;;
76636;SDS011;65532;52.124;5.480;2023-04-24T04:26:26;4.75;;;2.03;;
76636;SDS011;65532;52.124;5.480;2023-04-24T04:29:01;3.67;;;1.40;;
76636;SDS011;65532;52.124;5.480;2023-04-24T04:31:28;4.10;;;1.17;;
76636;SDS011;65532;52.124;5.480;2023-04-24T04:33:59;5.43;;;1.73;;
76636;SDS011;65532;52.124;5.480;2023-04-24T04:36:30;3.17;;;1.30;;
76636;SDS011;65532;52.124;5.480;2023-04-24T04:39:04;4.18;;;1.40;;
76636;SDS011;65532;52.124;5.480;2023-04-24T04:41:42;3.88;;;1.67;;
76636;SDS011;65532;52.124;5.480;2023-04-24T04:44:09;3.35;;;1.08;;
76636;SDS011;65532;52.124;5.480;2023-04-24T04:46:36;4.78;;;2.50;;
76636;SDS011;65532;52.124;5.480;2023-04-24T04:49:20;4.30;;;1.23;;
76636;SDS011;65532;52.124;5.480;2023-04-24T04:51:47;3.42;;;1.98;;
76636;SDS011;65532;52.124;5.480;2023-04-24T04:54:14;3.58;;;1.65;;
76636;SDS011;65532;52.124;5.480;2023-04-24T04:56:42;5.78;;;1.70;;
76636;SDS011;65532;52.124;5.480;2023-04-24T04:59:08;3.75;;;1.77;;
76636;SDS011;65532;52.124;5.480;2023-04-24T05:01:37;5.32;;;1.80;;
76636;SDS011;65532;52.124;5.480;2023-04-24T05:04:06;5.68;;;2.50;;
76636;SDS011;65532;52.124;5.480;2023-04-24T05:06:33;3.80;;;2.28;;
76636;SDS011;65532;52.124;5.480;2023-04-24T05:08:59;4.38;;;1.42;;
76636;SDS011;65532;52.124;5.480;2023-04-24T05:11:33;4.00;;;1.02;;
76636;SDS011;65532;52.124;5.480;2023-04-24T05:14:01;4.20;;;1.40;;
76636;SDS011;65532;52.124;5.480;2023-04-24T05:16:36;3.67;;;2.33;;
76636;SDS011;65532;52.124;5.480;2023-04-24T05:19:04;4.47;;;1.98;;
76636;SDS011;65532;52.124;5.480;2023-04-24T05:21:35;4.05;;;2.22;;
76636;SDS011;65532;52.124;5.480;2023-04-24T05:24:02;4.47;;;1.27;;
76636;SDS011;65532;52.124;5.480;2023-04-24T05:26:47;4.28;;;1.90;;
76636;SDS011;65532;52.124;5.480;2023-04-24T05:29:18;4.68;;;1.70;;
76636;SDS011;65532;52.124;5.480;2023-04-24T05:31:45;4.75;;;1.67;;
76636;SDS011;65532;52.124;5.480;2023-04-24T05:34:11;4.75;;;1.42;;
76636;SDS011;65532;52.124;5.480;2023-04-24T05:36:42;3.90;;;1.52;;
76636;SDS011;65532;52.124;5.480;2023-04-24T05:39:08;3.05;;;1.40;;
76636;SDS011;65532;52.124;5.480;2023-04-24T05:41:35;3.72;;;1.38;;
76636;SDS011;65532;52.124;5.480;2023-04-24T05:44:02;3.92;;;2.20;;
76636;SDS011;65532;52.124;5.480;2023-04-24T05:46:28;4.78;;;1.90;;
76636;SDS011;65532;52.124;5.480;2023-04-24T05:48:55;4.63;;;2.13;;
76636;SDS011;65532;52.124;5.480;2023-04-24T05:51:21;4.82;;;1.33;;
76636;SDS011;65532;52.124;5.480;2023-04-24T05:53:48;5.03;;;1.85;;
76636;SDS011;65532;52.124;5.480;2023-04-24T05:56:15;4.15;;;2.10;;
76636;SDS011;65532;52.124;5.480;2023-04-24T05:58:41;6.63;;;2.13;;
76636;SDS011;65532;52.124;5.480;2023-04-24T06:01:08;4.05;;;1.42;;
76636;SDS011;65532;52.124;5.480;2023-04-24T06:03:37;5.47;;;1.92;;
76636;SDS011;65532;52.124;5.480;2023-04-24T06:06:06;4.57;;;1.23;;
76636;SDS011;65532;52.124;5.480;2023-04-24T06:08:34;2.83;;;0.60;;
76636;SDS011;65532;52.124;5.480;2023-04-24T06:11:01;3.17;;;1.20;;
76636;SDS011;65532;52.124;5.480;2023-04-24T06:13:30;2.90;;;0.95;;
76636;SDS011;65532;52.124;5.480;2023-04-24T06:16:17;4.63;;;1.40;;
76636;SDS011;65532;52.124;5.480;2023-04-24T06:18:49;4.03;;;1.90;;
76636;SDS011;65532;52.124;5.480;2023-04-24T06:21:17;4.63;;;1.15;;
76636;SDS011;65532;52.124;5.480;2023-04-24T06:23:44;3.30;;;1.90;;
76636;SDS011;65532;52.124;5.480;2023-04-24T06:26:13;6.05;;;0.68;;
76636;SDS011;65532;52.124;5.480;2023-04-24T06:28:40;1.95;;;0.95;;
76636;SDS011;65532;52.124;5.480;2023-04-24T06:31:07;3.42;;;1.27;;
76636;SDS011;65532;52.124;5.480;2023-04-24T06:33:33;1.85;;;0.88;;
76636;SDS011;65532;52.124;5.480;2023-04-24T06:36:00;1.38;;;0.43;;
76636;SDS011;65532;52.124;5.480;2023-04-24T06:38:26;2.58;;;0.22;;
76636;SDS011;65532;52.124;5.480;2023-04-24T06:40:53;1.00;;;0.30;;
76636;SDS011;65532;52.124;5.480;2023-04-24T06:43:19;1.42;;;0.50;;
76636;SDS011;65532;52.124;5.480;2023-04-24T06:45:46;1.65;;;0.45;;
76636;SDS011;65532;52.124;5.480;2023-04-24T06:48:13;1.85;;;0.45;;
76636;SDS011;65532;52.124;5.480;2023-04-24T06:50:39;1.63;;;0.45;;
76636;SDS011;65532;52.124;5.480;2023-04-24T06:53:06;3.42;;;1.85;;
76636;SDS011;65532;52.124;5.480;2023-04-24T06:55:32;5.95;;;1.92;;
76636;SDS011;65532;52.124;5.480;2023-04-24T06:57:59;6.22;;;3.28;;
76636;SDS011;65532;52.124;5.480;2023-04-24T07:00:25;6.35;;;2.38;;
76636;SDS011;65532;52.124;5.480;2023-04-24T07:02:52;6.82;;;3.53;;
76636;SDS011;65532;52.124;5.480;2023-04-24T07:05:18;5.00;;;2.72;;
76636;SDS011;65532;52.124;5.480;2023-04-24T07:07:46;5.43;;;2.63;;
76636;SDS011;65532;52.124;5.480;2023-04-24T07:10:14;6.07;;;2.60;;
76636;SDS011;65532;52.124;5.480;2023-04-24T07:12:40;7.95;;;3.40;;
76636;SDS011;65532;52.124;5.480;2023-04-24T07:15:07;5.97;;;1.88;;
76636;SDS011;65532;52.124;5.480;2023-04-24T07:17:34;13.73;;;4.30;;
76636;SDS011;65532;52.124;5.480;2023-04-24T07:20:01;8.23;;;3.30;;
76636;SDS011;65532;52.124;5.480;2023-04-24T07:22:27;7.63;;;4.18;;
76636;SDS011;65532;52.124;5.480;2023-04-24T07:24:54;7.50;;;3.78;;
76636;SDS011;65532;52.124;5.480;2023-04-24T07:27:20;9.98;;;4.20;;
76636;SDS011;65532;52.124;5.480;2023-04-24T07:29:47;8.35;;;3.03;;
76636;SDS011;65532;52.124;5.480;2023-04-24T07:32:13;9.43;;;3.05;;
76636;SDS011;65532;52.124;5.480;2023-04-24T07:34:40;7.40;;;3.33;;
76636;SDS011;65532;52.124;5.480;2023-04-24T07:37:06;11.23;;;5.15;;
76636;SDS011;65532;52.124;5.480;2023-04-24T07:39:33;11.82;;;3.70;;
76636;SDS011;65532;52.124;5.480;2023-04-24T07:41:59;7.53;;;2.65;;
76636;SDS011;65532;52.124;5.480;2023-04-24T07:44:27;7.13;;;2.33;;
76636;SDS011;65532;52.124;5.480;2023-04-24T07:46:53;15.90;;;3.63;;
76636;SDS011;65532;52.124;5.480;2023-04-24T07:49:20;7.90;;;3.53;;
76636;SDS011;65532;52.124;5.480;2023-04-24T07:51:47;7.93;;;3.20;;
76636;SDS011;65532;52.124;5.480;2023-04-24T07:54:13;8.88;;;3.72;;
76636;SDS011;65532;52.124;5.480;2023-04-24T07:56:40;6.45;;;2.65;;
76636;SDS011;65532;52.124;5.480;2023-04-24T07:59:09;6.20;;;3.15;;
76636;SDS011;65532;52.124;5.480;2023-04-24T08:01:36;7.22;;;2.42;;
76636;SDS011;65532;52.124;5.480;2023-04-24T08:04:02;8.48;;;3.28;;
76636;SDS011;65532;52.124;5.480;2023-04-24T08:06:29;6.93;;;2.65;;
76636;SDS011;65532;52.124;5.480;2023-04-24T08:08:56;8.40;;;4.22;;
76636;SDS011;65532;52.124;5.480;2023-04-24T08:11:23;8.70;;;3.65;;
76636;SDS011;65532;52.124;5.480;2023-04-24T08:13:50;7.00;;;3.67;;
76636;SDS011;65532;52.124;5.480;2023-04-24T08:16:17;9.55;;;3.33;;
76636;SDS011;65532;52.124;5.480;2023-04-24T08:18:43;5.72;;;3.13;;
76636;SDS011;65532;52.124;5.480;2023-04-24T08:21:10;6.97;;;3.13;;
76636;SDS011;65532;52.124;5.480;2023-04-24T08:23:39;4.80;;;2.78;;
76636;SDS011;65532;52.124;5.480;2023-04-24T08:26:05;7.47;;;2.05;;
76636;SDS011;65532;52.124;5.480;2023-04-24T08:28:33;10.77;;;2.83;;
76636;SDS011;65532;52.124;5.480;2023-04-24T08:30:59;6.03;;;1.20;;
76636;SDS011;65532;52.124;5.480;2023-04-24T08:33:26;4.55;;;1.60;;
76636;SDS011;65532;52.124;5.480;2023-04-24T08:35:52;6.50;;;1.65;;
76636;SDS011;65532;52.124;5.480;2023-04-24T08:38:19;5.30;;;1.63;;
76636;SDS011;65532;52.124;5.480;2023-04-24T08:40:45;2.55;;;1.15;;
76636;SDS011;65532;52.124;5.480;2023-04-24T08:43:15;8.45;;;2.42;;
76636;SDS011;65532;52.124;5.480;2023-04-24T08:45:42;4.03;;;1.08;;
76636;SDS011;65532;52.124;5.480;2023-04-24T08:48:09;5.03;;;2.20;;
76636;SDS011;65532;52.124;5.480;2023-04-24T08:50:52;7.50;;;1.88;;
76636;SDS011;65532;52.124;5.480;2023-04-24T08:53:19;12.45;;;2.25;;
76636;SDS011;65532;52.124;5.480;2023-04-24T08:55:46;7.78;;;4.22;;
76636;SDS011;65532;52.124;5.480;2023-04-24T08:58:15;9.40;;;1.63;;
76636;SDS011;65532;52.124;5.480;2023-04-24T09:00:43;8.48;;;2.13;;
76636;SDS011;65532;52.124;5.480;2023-04-24T09:03:16;8.07;;;1.48;;
76636;SDS011;65532;52.124;5.480;2023-04-24T09:05:44;3.60;;;1.20;;
76636;SDS011;65532;52.124;5.480;2023-04-24T09:08:13;6.20;;;1.52;;
76636;SDS011;65532;52.124;5.480;2023-04-24T09:10:40;5.72;;;1.48;;
76636;SDS011;65532;52.124;5.480;2023-04-24T09:13:07;6.07;;;0.75;;
76636;SDS011;65532;52.124;5.480;2023-04-24T09:15:37;5.47;;;1.50;;
76636;SDS011;65532;52.124;5.480;2023-04-24T09:18:05;6.25;;;0.98;;
76636;SDS011;65532;52.124;5.480;2023-04-24T09:20:32;4.82;;;0.82;;
76636;SDS011;65532;52.124;5.480;2023-04-24T09:22:59;4.72;;;1.15;;
76636;SDS011;65532;52.124;5.480;2023-04-24T09:25:32;7.30;;;0.70;;
76636;SDS011;65532;52.124;5.480;2023-04-24T09:28:02;3.63;;;1.13;;
76636;SDS011;65532;52.124;5.480;2023-04-24T09:30:30;3.95;;;1.23;;
76636;SDS011;65532;52.124;5.480;2023-04-24T09:33:15;4.55;;;1.35;;
76636;SDS011;65532;52.124;5.480;2023-04-24T09:35:42;6.80;;;0.98;;
76636;SDS011;65532;52.124;5.480;2023-04-24T09:38:16;3.45;;;0.43;;
76636;SDS011;65532;52.124;5.480;2023-04-24T09:40:43;5.43;;;0.82;;
76636;SDS011;65532;52.124;5.480;2023-04-24T09:43:10;8.77;;;0.95;;
76636;SDS011;65532;52.124;5.480;2023-04-24T09:45:38;1.85;;;0.40;;
76636;SDS011;65532;52.124;5.480;2023-04-24T09:48:08;4.65;;;0.52;;
76636;SDS011;65532;52.124;5.480;2023-04-24T09:50:36;6.75;;;1.10;;
76636;SDS011;65532;52.124;5.480;2023-04-24T09:53:04;7.32;;;1.15;;
76636;SDS011;65532;52.124;5.480;2023-04-24T09:55:38;3.67;;;0.60;;
76636;SDS011;65532;52.124;5.480;2023-04-24T09:58:07;5.07;;;0.50;;
76636;SDS011;65532;52.124;5.480;2023-04-24T10:00:34;3.47;;;1.27;;
76636;SDS011;65532;52.124;5.480;2023-04-24T10:03:01;2.17;;;0.47;;
76636;SDS011;65532;52.124;5.480;2023-04-24T10:05:32;7.20;;;1.35;;
76636;SDS011;65532;52.124;5.480;2023-04-24T10:08:04;3.58;;;0.43;;
76636;SDS011;65532;52.124;5.480;2023-04-24T10:10:41;3.30;;;0.70;;
76636;SDS011;65532;52.124;5.480;2023-04-24T10:13:09;4.90;;;1.05;;
76636;SDS011;65532;52.124;5.480;2023-04-24T10:15:37;3.50;;;0.65;;
76636;SDS011;65532;52.124;5.480;2023-04-24T10:18:05;4.88;;;0.52;;
76636;SDS011;65532;52.124;5.480;2023-04-24T10:20:33;2.83;;;1.08;;
76636;SDS011;65532;52.124;5.480;2023-04-24T10:23:00;3.47;;;0.55;;
76636;SDS011;65532;52.124;5.480;2023-04-24T10:25:29;4.43;;;0.80;;
76636;SDS011;65532;52.124;5.480;2023-04-24T10:27:57;3.30;;;1.15;;
76636;SDS011;65532;52.124;5.480;2023-04-24T10:30:26;8.70;;;0.57;;
76636;SDS011;65532;52.124;5.480;2023-04-24T10:32:55;10.43;;;0.98;;
76636;SDS011;65532;52.124;5.480;2023-04-24T10:35:22;6.55;;;1.00;;
76636;SDS011;65532;52.124;5.480;2023-04-24T10:37:54;6.35;;;0.82;;
76636;SDS011;65532;52.124;5.480;2023-04-24T10:40:25;1.88;;;0.20;;
76636;SDS011;65532;52.124;5.480;2023-04-24T10:42:54;2.58;;;0.43;;
76636;SDS011;65532;52.124;5.480;2023-04-24T10:45:24;1.98;;;0.22;;
76636;SDS011;65532;52.124;5.480;2023-04-24T10:48:01;5.72;;;0.35;;
76636;SDS011;65532;52.124;5.480;2023-04-24T10:50:47;2.00;;;0.38;;
76636;SDS011;65532;52.124;5.480;2023-04-24T10:53:18;3.80;;;1.55;;
76636;SDS011;65532;52.124;5.480;2023-04-24T10:55:49;2.33;;;0.35;;
76636;SDS011;65532;52.124;5.480;2023-04-24T11:01:28;0.85;;;0.43;;
76636;SDS011;65532;52.124;5.480;2023-04-24T11:04:00;1.67;;;0.65;;
76636;SDS011;65532;52.124;5.480;2023-04-24T11:06:35;1.95;;;0.75;;
76636;SDS011;65532;52.124;5.480;2023-04-24T11:11:34;1.58;;;0.43;;
76636;SDS011;65532;52.124;5.480;2023-04-24T11:14:02;1.77;;;0.35;;
76636;SDS011;65532;52.124;5.480;2023-04-24T11:16:32;3.95;;;0.57;;
76636;SDS011;65532;52.124;5.480;2023-04-24T11:19:09;3.13;;;0.90;;
76636;SDS011;65532;52.124;5.480;2023-04-24T11:27:12;1.13;;;0.43;;
76636;SDS011;65532;52.124;5.480;2023-04-24T11:29:44;3.35;;;0.80;;
76636;SDS011;65532;52.124;5.480;2023-04-24T11:32:14;4.63;;;0.80;;
76636;SDS011;65532;52.124;5.480;2023-04-24T11:34:45;3.00;;;0.47;;
76636;SDS011;65532;52.124;5.480;2023-04-24T11:37:13;6.05;;;0.98;;
76636;SDS011;65532;52.124;5.480;2023-04-24T11:39:40;2.63;;;0.90;;
76636;SDS011;65532;52.124;5.480;2023-04-24T11:42:07;2.40;;;2.10;;
76636;SDS011;65532;52.124;5.480;2023-04-24T11:44:41;3.20;;;0.30;;
76636;SDS011;65532;52.124;5.480;2023-04-24T11:47:09;2.22;;;0.30;;
76636;SDS011;65532;52.124;5.480;2023-04-24T11:49:39;4.10;;;2.63;;
76636;SDS011;65532;52.124;5.480;2023-04-24T11:52:05;3.55;;;2.00;;
76636;SDS011;65532;52.124;5.480;2023-04-24T11:54:32;2.80;;;0.40;;
76636;SDS011;65532;52.124;5.480;2023-04-24T11:56:59;4.45;;;0.63;;
76636;SDS011;65532;52.124;5.480;2023-04-24T11:59:29;1.92;;;0.20;;
76636;SDS011;65532;52.124;5.480;2023-04-24T12:01:56;3.85;;;0.73;;
76636;SDS011;65532;52.124;5.480;2023-04-24T12:04:22;2.13;;;0.13;;
76636;SDS011;65532;52.124;5.480;2023-04-24T12:06:59;2.78;;;0.20;;
76636;SDS011;65532;52.124;5.480;2023-04-24T12:09:26;0.80;;;0.35;;
76636;SDS011;65532;52.124;5.480;2023-04-24T12:11:53;4.72;;;0.20;;
76636;SDS011;65532;52.124;5.480;2023-04-24T12:14:23;2.05;;;0.40;;
76636;SDS011;65532;52.124;5.480;2023-04-24T12:16:50;0.70;;;0.20;;
76636;SDS011;65532;52.124;5.480;2023-04-24T12:19:21;0.77;;;0.22;;
76636;SDS011;65532;52.124;5.480;2023-04-24T12:22:00;1.65;;;0.10;;
76636;SDS011;65532;52.124;5.480;2023-04-24T12:24:29;0.88;;;0.25;;
76636;SDS011;65532;52.124;5.480;2023-04-24T12:26:57;2.05;;;0.10;;
76636;SDS011;65532;52.124;5.480;2023-04-24T12:29:24;1.10;;;0.13;;
76636;SDS011;65532;52.124;5.480;2023-04-24T12:31:51;5.30;;;0.52;;
76636;SDS011;65532;52.124;5.480;2023-04-24T12:34:21;2.03;;;0.25;;
76636;SDS011;65532;52.124;5.480;2023-04-24T12:36:49;6.03;;;0.30;;
76636;SDS011;65532;52.124;5.480;2023-04-24T12:39:19;2.90;;;0.38;;
76636;SDS011;65532;52.124;5.480;2023-04-24T12:41:50;5.90;;;0.63;;
76636;SDS011;65532;52.124;5.480;2023-04-24T12:44:28;4.95;;;0.77;;
76636;SDS011;65532;52.124;5.480;2023-04-24T12:46:56;3.90;;;0.40;;
76636;SDS011;65532;52.124;5.480;2023-04-24T12:49:23;2.80;;;0.68;;
76636;SDS011;65532;52.124;5.480;2023-04-24T12:51:50;4.45;;;0.70;;
76636;SDS011;65532;52.124;5.480;2023-04-24T12:54:16;2.33;;;0.98;;
76636;SDS011;65532;52.124;5.480;2023-04-24T12:56:43;3.15;;;0.20;;
76636;SDS011;65532;52.124;5.480;2023-04-24T12:59:09;4.43;;;1.27;;
76636;SDS011;65532;52.124;5.480;2023-04-24T13:01:36;3.85;;;0.50;;
76636;SDS011;65532;52.124;5.480;2023-04-24T13:04:02;1.67;;;0.43;;
76636;SDS011;65532;52.124;5.480;2023-04-24T13:06:29;3.15;;;0.52;;
76636;SDS011;65532;52.124;5.480;2023-04-24T13:08:55;5.18;;;0.52;;
76636;SDS011;65532;52.124;5.480;2023-04-24T13:11:24;7.63;;;0.70;;
76636;SDS011;65532;52.124;5.480;2023-04-24T13:13:50;5.53;;;0.57;;
76636;SDS011;65532;52.124;5.480;2023-04-24T13:16:20;5.15;;;0.73;;
76636;SDS011;65532;52.124;5.480;2023-04-24T13:18:46;3.35;;;0.45;;
76636;SDS011;65532;52.124;5.480;2023-04-24T13:21:13;4.82;;;0.93;;
76636;SDS011;65532;52.124;5.480;2023-04-24T13:23:39;11.70;;;1.35;;
76636;SDS011;65532;52.124;5.480;2023-04-24T13:26:07;5.55;;;0.85;;
76636;SDS011;65532;52.124;5.480;2023-04-24T13:28:34;5.00;;;0.57;;
76636;SDS011;65532;52.124;5.480;2023-04-24T13:31:01;5.18;;;0.43;;
76636;SDS011;65532;52.124;5.480;2023-04-24T13:33:27;3.45;;;0.95;;
76636;SDS011;65532;52.124;5.480;2023-04-24T13:35:53;7.15;;;0.60;;
76636;SDS011;65532;52.124;5.480;2023-04-24T13:38:20;5.38;;;0.55;;
76636;SDS011;65532;52.124;5.480;2023-04-24T13:40:48;5.22;;;1.20;;
76636;SDS011;65532;52.124;5.480;2023-04-24T13:43:14;6.72;;;0.82;;
76636;SDS011;65532;52.124;5.480;2023-04-24T13:45:41;8.52;;;1.30;;
76636;SDS011;65532;52.124;5.480;2023-04-24T13:48:08;4.35;;;0.73;;
76636;SDS011;65532;52.124;5.480;2023-04-24T13:50:35;2.47;;;1.42;;
76636;SDS011;65532;52.124;5.480;2023-04-24T13:53:02;7.47;;;1.15;;
76636;SDS011;65532;52.124;5.480;2023-04-24T13:55:28;5.28;;;0.55;;
76636;SDS011;65532;52.124;5.480;2023-04-24T13:57:55;7.75;;;0.77;;
76636;SDS011;65532;52.124;5.480;2023-04-24T14:00:22;4.15;;;1.02;;
76636;SDS011;65532;52.124;5.480;2023-04-24T14:02:48;6.53;;;0.77;;
76636;SDS011;65532;52.124;5.480;2023-04-24T14:05:15;4.38;;;1.58;;
76636;SDS011;65532;52.124;5.480;2023-04-24T14:07:42;6.07;;;0.95;;
76636;SDS011;65532;52.124;5.480;2023-04-24T14:10:08;5.97;;;0.82;;
76636;SDS011;65532;52.124;5.480;2023-04-24T14:12:35;4.45;;;0.60;;
76636;SDS011;65532;52.124;5.480;2023-04-24T14:15:02;4.57;;;1.05;;
76636;SDS011;65532;52.124;5.480;2023-04-24T14:17:30;5.47;;;0.95;;
76636;SDS011;65532;52.124;5.480;2023-04-24T14:19:57;2.05;;;0.65;;
76636;SDS011;65532;52.124;5.480;2023-04-24T14:22:26;4.38;;;0.60;;
76636;SDS011;65532;52.124;5.480;2023-04-24T14:24:52;2.72;;;0.32;;
76636;SDS011;65532;52.124;5.480;2023-04-24T14:27:19;6.07;;;1.08;;
76636;SDS011;65532;52.124;5.480;2023-04-24T14:29:45;4.32;;;1.08;;
76636;SDS011;65532;52.124;5.480;2023-04-24T14:32:11;4.57;;;0.88;;
76636;SDS011;65532;52.124;5.480;2023-04-24T14:34:41;5.18;;;1.05;;
76636;SDS011;65532;52.124;5.480;2023-04-24T14:37:07;6.57;;;1.50;;
76636;SDS011;65532;52.124;5.480;2023-04-24T14:39:34;5.07;;;0.82;;
76636;SDS011;65532;52.124;5.480;2023-04-24T14:42:00;3.40;;;1.30;;
76636;SDS011;65532;52.124;5.480;2023-04-24T14:44:27;5.38;;;1.45;;
76636;SDS011;65532;52.124;5.480;2023-04-24T14:46:54;8.38;;;1.42;;
76636;SDS011;65532;52.124;5.480;2023-04-24T14:49:20;3.67;;;0.65;;
76636;SDS011;65532;52.124;5.480;2023-04-24T14:51:47;7.70;;;1.02;;
76636;SDS011;65532;52.124;5.480;2023-04-24T14:54:13;4.80;;;1.67;;
76636;SDS011;65532;52.124;5.480;2023-04-24T14:56:40;6.90;;;1.17;;
76636;SDS011;65532;52.124;5.480;2023-04-24T14:59:07;5.88;;;1.85;;
76636;SDS011;65532;52.124;5.480;2023-04-24T15:01:33;5.05;;;0.80;;
76636;SDS011;65532;52.124;5.480;2023-04-24T15:04:00;7.00;;;1.88;;